Time;durP1;ratioP1;P1;durP2;ratioP2;P2;SDS_P1;SDS_P2;PMS_P1;PMS_P2;Temp;Humidity;BMP_temperature;BMP_pressure;BME280_temperature;BME280_humidity;BME280_pressure;Samples;Min_cycle;Max_cycle;Signal;HPM_P1;HPM_P2
2021/04/17 00:00:59;;;;;;;6.90;2.20;;;4.30;97.10;;;;;;10468117;28;20093;-67
2021/04/17 00:06:00;;;;;;;4.28;1.92;;;4.30;95.00;;;;;;10465441;28;20120;-67
2021/04/17 00:11:04;;;;;;;8.65;2.75;;;4.10;96.90;;;;;;10464620;28;20045;-68
2021/04/17 00:16:06;;;;;;;15.77;1.95;;;4.80;96.90;;;;;;10464631;28;20099;-67
2021/04/17 00:21:07;;;;;;;7.85;2.22;;;4.00;95.20;;;;;;10469120;28;20080;-67
2021/04/17 00:26:09;;;;;;;4.38;2.20;;;3.90;95.30;;;;;;10467307;28;20464;-67
2021/04/17 00:31:11;;;;;;;3.38;1.77;;;4.00;95.30;;;;;;10466928;28;20045;-66
2021/04/17 00:36:12;;;;;;;3.58;1.77;;;3.90;95.10;;;;;;10466732;28;20109;-66
2021/04/17 00:41:14;;;;;;;13.43;2.28;;;3.80;97.20;;;;;;10467369;28;20392;-66
2021/04/17 00:46:16;;;;;;;5.35;2.40;;;3.70;97.20;;;;;;10467306;28;20090;-67
2021/04/17 00:51:18;;;;;;;8.68;1.95;;;3.70;97.00;;;;;;10466695;28;20048;-67
2021/04/17 00:56:21;;;;;;;14.02;2.40;;;3.70;95.30;;;;;;10464686;28;20044;-67
2021/04/17 01:01:22;;;;;;;9.50;2.03;;;3.60;95.40;;;;;;10467102;28;20048;-67
2021/04/17 01:06:34;;;;;;;10.70;2.15;;;3.70;95.70;;;;;;10461360;28;20409;-67
2021/04/17 01:11:40;;;;;;;8.35;1.83;;;3.70;95.70;;;;;;10459145;28;20106;-67
2021/04/17 01:16:42;;;;;;;4.00;2.08;;;3.60;95.80;;;;;;10463139;28;20148;-67
2021/04/17 01:21:44;;;;;;;11.13;2.58;;;3.50;96.20;;;;;;10462659;28;20564;-67
2021/04/17 01:26:46;;;;;;;8.43;2.20;;;3.20;97.90;;;;;;10463063;28;20147;-67
2021/04/17 01:31:48;;;;;;;6.43;2.17;;;5.00;98.60;;;;;;10453355;28;20059;-67
2021/04/17 01:36:50;;;;;;;8.15;2.72;;;4.20;98.50;;;;;;10460400;28;20600;-68
2021/04/17 01:41:58;;;;;;;8.52;2.30;;;3.40;96.60;;;;;;10465090;28;20075;-68
2021/04/17 01:47:01;;;;;;;11.50;2.50;;;3.40;97.00;;;;;;10467589;28;20076;-69
2021/04/17 01:52:03;;;;;;;9.73;2.63;;;3.30;97.10;;;;;;10466131;28;20052;-68
2021/04/17 01:57:07;;;;;;;6.35;2.70;;;3.30;97.30;;;;;;10465610;28;20066;-68
2021/04/17 02:02:09;;;;;;;4.95;2.42;;;3.30;97.80;;;;;;10466046;28;20146;-66
2021/04/17 02:07:10;;;;;;;7.05;2.97;;;3.40;99.90;;;;;;10466494;28;20076;-66
2021/04/17 02:12:13;;;;;;;9.10;2.70;;;3.20;98.10;;;;;;10465212;28;20382;-69
2021/04/17 02:17:17;;;;;;;8.87;2.60;;;3.30;98.30;;;;;;10465246;28;20054;-68
2021/04/17 02:22:20;;;;;;;6.05;2.85;;;3.20;98.30;;;;;;10466132;28;20068;-67
2021/04/17 02:27:22;;;;;;;10.02;2.92;;;3.20;98.30;;;;;;10465219;28;20048;-67
2021/04/17 02:32:24;;;;;;;10.80;3.10;;;3.10;98.50;;;;;;10464702;28;20048;-68
2021/04/17 02:37:26;;;;;;;13.18;2.90;;;3.00;98.60;;;;;;10465192;28;20443;-68
2021/04/17 02:42:28;;;;;;;7.30;3.20;;;3.00;99.90;;;;;;10464947;28;20543;-68
2021/04/17 02:47:29;;;;;;;6.78;3.08;;;3.20;99.90;;;;;;10464268;28;20083;-68
2021/04/17 02:52:30;;;;;;;16.83;3.65;;;3.10;99.20;;;;;;10465484;28;20131;-68
2021/04/17 02:57:32;;;;;;;11.65;3.00;;;3.10;99.30;;;;;;10464051;28;20625;-68
2021/04/17 03:02:34;;;;;;;8.27;2.90;;;3.10;99.30;;;;;;10464531;28;20668;-67
2021/04/17 03:07:35;;;;;;;9.88;2.85;;;3.00;99.60;;;;;;10464939;28;20040;-66
2021/04/17 03:12:39;;;;;;;5.93;2.90;;;3.00;99.80;;;;;;10463890;28;20532;-67
2021/04/17 03:17:40;;;;;;;6.90;2.72;;;3.00;99.90;;;;;;10465621;28;20159;-66
2021/04/17 03:22:42;;;;;;;16.25;3.53;;;3.00;99.90;;;;;;10464403;28;20168;-66
2021/04/17 03:27:44;;;;;;;8.82;3.08;;;3.10;99.90;;;;;;10463805;28;20059;-67
2021/04/17 03:32:46;;;;;;;9.13;3.47;;;3.00;99.90;;;;;;10464944;28;20446;-66
2021/04/17 03:37:47;;;;;;;6.63;3.65;;;2.90;99.90;;;;;;10462680;28;20139;-67
2021/04/17 03:42:49;;;;;;;7.70;3.38;;;3.00;99.90;;;;;;10460912;28;20671;-66
2021/04/17 03:47:51;;;;;;;9.47;3.90;;;2.90;99.90;;;;;;10458469;28;20482;-67
2021/04/17 03:52:52;;;;;;;10.30;3.38;;;2.90;99.90;;;;;;10463911;28;20072;-67
2021/04/17 03:57:54;;;;;;;13.13;4.32;;;2.90;99.90;;;;;;10467557;28;20131;-67
2021/04/17 04:02:56;;;;;;;19.67;4.55;;;2.80;99.90;;;;;;10468178;28;20041;-70
2021/04/17 04:07:57;;;;;;;13.95;3.90;;;2.90;99.90;;;;;;10467544;28;20056;-68
2021/04/17 04:13:00;;;;;;;9.05;4.88;;;2.70;99.90;;;;;;10465438;28;20401;-66
2021/04/17 04:18:02;;;;;;;9.80;4.47;;;2.50;99.90;;;;;;10467810;28;20524;-67
2021/04/17 04:23:05;;;;;;;15.27;5.00;;;2.50;99.90;;;;;;10469809;28;20643;-67
2021/04/17 04:28:07;;;;;;;21.55;5.55;;;2.50;99.90;;;;;;10470461;28;20043;-67
2021/04/17 04:33:08;;;;;;;12.55;5.00;;;2.50;99.90;;;;;;10470377;28;20556;-67
2021/04/17 04:38:09;;;;;;;18.20;4.88;;;2.30;99.90;;;;;;10470532;28;20946;-66
2021/04/17 04:43:12;;;;;;;13.35;5.82;;;2.40;99.90;;;;;;10469798;28;20044;-67
2021/04/17 04:48:13;;;;;;;15.20;5.85;;;2.50;99.90;;;;;;10470190;28;20044;-68
2021/04/17 04:53:15;;;;;;;17.70;6.13;;;2.90;99.90;;;;;;10469475;28;20131;-68
2021/04/17 04:58:17;;;;;;;15.90;5.97;;;2.40;99.90;;;;;;10470664;28;20143;-66
2021/04/17 05:03:18;;;;;;;18.40;5.73;;;2.50;99.90;;;;;;10469608;28;20052;-67
2021/04/17 05:08:19;;;;;;;15.25;6.65;;;2.50;99.90;;;;;;10468093;28;20150;-67
2021/04/17 05:13:21;;;;;;;21.05;7.40;;;2.60;99.90;;;;;;10471180;28;20143;-66
2021/04/17 05:18:23;;;;;;;18.95;7.05;;;2.70;99.90;;;;;;10469293;28;21345;-67
2021/04/17 05:23:24;;;;;;;13.88;5.88;;;3.90;99.90;;;;;;10468763;28;20170;-67
2021/04/17 05:28:26;;;;;;;14.30;5.18;;;3.80;99.90;;;;;;10469907;28;20056;-68
2021/04/17 05:33:28;;;;;;;10.30;4.78;;;5.10;99.90;;;;;;10460967;28;20045;-68
2021/04/17 05:38:29;;;;;;;12.27;3.97;;;6.90;97.30;;;;;;10463704;28;20143;-68
2021/04/17 05:43:31;;;;;;;15.20;4.60;;;9.30;92.30;;;;;;10464611;28;20047;-67
2021/04/17 05:48:32;;;;;;;16.33;3.53;;;11.40;84.80;;;;;;10456185;28;20089;-67
2021/04/17 05:53:34;;;;;;;14.00;3.03;;;13.00;77.20;;;;;;10456110;28;20055;-69
2021/04/17 05:58:36;;;;;;;20.65;3.00;;;14.10;72.30;;;;;;10459443;28;20048;-68
2021/04/17 06:03:38;;;;;;;14.25;2.90;;;15.10;67.70;;;;;;10462345;28;20106;-67
2021/04/17 06:08:39;;;;;;;9.40;2.42;;;16.10;64.30;;;;;;10455187;28;20083;-67
2021/04/17 06:13:41;;;;;;;10.57;2.95;;;17.00;60.60;;;;;;10461116;28;20060;-67
2021/04/17 06:18:43;;;;;;;14.50;3.90;;;17.70;57.00;;;;;;10463147;28;20048;-67
2021/04/17 06:23:44;;;;;;;9.13;2.60;;;18.30;54.90;;;;;;10461459;28;20044;-68
2021/04/17 06:28:46;;;;;;;9.43;2.13;;;19.00;52.60;;;;;;10462162;28;20048;-65
2021/04/17 06:33:48;;;;;;;7.70;1.92;;;19.80;49.20;;;;;;10448559;28;20113;-64
2021/04/17 06:38:49;;;;;;;9.65;2.15;;;19.80;46.20;;;;;;10463057;28;20068;-65
2021/04/17 06:43:52;;;;;;;17.27;2.40;;;20.30;43.50;;;;;;10463070;28;20056;-65
2021/04/17 06:48:54;;;;;;;11.43;2.22;;;21.00;42.60;;;;;;10463249;28;20048;-66
2021/04/17 06:53:56;;;;;;;6.72;1.90;;;22.00;39.70;;;;;;10464007;28;20126;-65
2021/04/17 06:58:59;;;;;;;8.38;1.95;;;22.30;37.50;;;;;;10462496;28;20534;-66
2021/04/17 07:04:01;;;;;;;8.45;2.03;;;22.20;36.20;;;;;;10463527;28;20071;-65
2021/04/17 07:09:03;;;;;;;7.10;1.92;;;22.50;35.80;;;;;;10462145;28;20082;-66
2021/04/17 07:14:08;;;;;;;5.68;1.90;;;23.00;34.30;;;;;;10458989;28;20121;-66
2021/04/17 07:19:09;;;;;;;7.40;1.48;;;23.60;32.90;;;;;;10461645;28;20040;-65
2021/04/17 07:24:24;;;;;;;8.50;1.77;;;23.60;31.70;;;;;;10460197;28;20135;-66
2021/04/17 07:29:26;;;;;;;5.95;1.50;;;23.60;31.60;;;;;;10457669;28;20088;-65
2021/04/17 07:34:28;;;;;;;3.92;1.50;;;23.90;30.20;;;;;;10469646;28;20186;-66
2021/04/17 07:39:35;;;;;;;6.38;1.73;;;24.20;29.90;;;;;;10464362;28;20048;-66
2021/04/17 07:44:40;;;;;;;7.43;1.83;;;24.40;29.90;;;;;;10468929;28;20999;-65
2021/04/17 07:49:41;;;;;;;6.97;1.20;;;24.40;28.90;;;;;;10472471;28;20055;-65
2021/04/17 07:55:05;;;;;;;7.43;1.73;;;24.40;28.60;;;;;;10470671;28;20539;-66
2021/04/17 08:00:10;;;;;;;7.47;1.65;;;24.40;29.10;;;;;;10470571;28;20044;-66
2021/04/17 08:05:13;;;;;;;5.63;1.08;;;24.40;29.00;;;;;;10470191;28;20036;-66
2021/04/17 08:10:15;;;;;;;7.68;1.80;;;24.10;29.40;;;;;;10468841;28;20037;-68
2021/04/17 08:15:19;;;;;;;5.07;1.90;;;24.30;29.10;;;;;;10468759;28;20907;-65
2021/04/17 08:20:21;;;;;;;3.28;1.15;;;24.30;29.30;;;;;;10470352;28;20634;-65
2021/04/17 08:25:24;;;;;;;6.43;1.23;;;23.10;29.40;;;;;;10466512;28;20048;-65
2021/04/17 08:30:27;;;;;;;5.40;1.42;;;22.80;29.80;;;;;;10469518;28;20044;-65
2021/04/17 08:35:37;;;;;;;6.50;1.88;;;23.80;29.10;;;;;;10465540;28;20184;-66
2021/04/17 08:40:51;;;;;;;11.60;1.63;;;23.70;29.00;;;;;;10468085;28;20060;-65
2021/04/17 08:46:02;;;;;;;3.63;1.23;;;23.40;28.70;;;;;;10465491;28;20050;-65
2021/04/17 08:51:18;;;;;;;;;;;23.40;28.40;;;;;;10467339;28;20052;-65
2021/04/17 08:56:20;;;;;;;8.25;1.30;;;22.10;29.70;;;;;;10463650;28;19938;-65
2021/04/17 09:01:22;;;;;;;6.53;1.13;;;22.00;29.70;;;;;;10466138;28;20408;-65
2021/04/17 09:06:42;;;;;;;6.60;1.38;;;21.10;31.50;;;;;;10467288;28;20142;-64
2021/04/17 09:11:45;;;;;;;8.95;1.80;;;21.50;30.70;;;;;;10465776;28;20162;-65
2021/04/17 09:16:47;;;;;;;7.55;1.33;;;22.10;30.40;;;;;;10466055;28;20148;-65
2021/04/17 09:21:48;;;;;;;7.30;1.52;;;22.20;30.10;;;;;;10465377;28;20045;-66
2021/04/17 09:26:49;;;;;;;;;;;22.00;30.20;;;;;;10466078;28;20044;-65
2021/04/17 09:31:52;;;;;;;4.45;1.42;;;22.00;30.40;;;;;;10464910;28;20020;-65
2021/04/17 09:36:54;;;;;;;3.08;1.33;;;22.00;30.70;;;;;;10464262;28;20591;-66
2021/04/17 09:41:58;;;;;;;6.70;1.60;;;21.80;30.00;;;;;;10463383;28;20041;-65
2021/04/17 09:47:10;;;;;;;6.55;1.80;;;22.00;30.90;;;;;;10462926;28;20036;-65
2021/04/17 09:52:17;;;;;;;6.57;1.63;;;22.10;31.20;;;;;;10464628;28;20460;-65
2021/04/17 09:57:18;;;;;;;8.90;1.67;;;21.80;31.80;;;;;;10464595;28;20044;-65
2021/04/17 10:02:20;;;;;;;;;;;22.10;32.70;;;;;;10463518;28;20442;-65
2021/04/17 10:07:21;;;;;;;8.82;1.75;;;22.20;32.20;;;;;;10463790;28;19928;-65
2021/04/17 10:12:22;;;;;;;;;;;21.80;33.10;;;;;;10464820;28;20103;-66
2021/04/17 10:17:24;;;;;;;10.43;1.45;;;21.50;33.90;;;;;;10463649;28;19925;-65
2021/04/17 10:22:26;;;;;;;5.40;2.10;;;21.60;33.00;;;;;;10464227;28;20102;-66
2021/04/17 10:27:33;;;;;;;;;;;21.60;32.70;;;;;;10465657;28;20477;-65
2021/04/17 10:32:38;;;;;;;9.27;1.95;;;21.40;33.20;;;;;;10465060;28;19928;-67
2021/04/17 10:37:44;;;;;;;14.52;2.10;;;21.10;34.40;;;;;;10463499;28;20060;-65
2021/04/17 10:42:50;;;;;;;12.00;2.17;;;22.50;35.80;;;;;;10464483;28;20063;-66
2021/04/17 10:48:01;;;;;;;7.38;2.28;;;21.00;34.20;;;;;;10462179;28;20204;-65
2021/04/17 10:53:06;;;;;;;7.37;2.03;;;20.90;34.00;;;;;;10463568;28;20149;-66
2021/04/17 10:58:20;;;;;;;11.77;1.92;;;20.90;34.80;;;;;;10462383;28;20956;-66
2021/04/17 11:03:24;;;;;;;10.98;2.20;;;21.10;33.70;;;;;;10462214;28;20056;-66
2021/04/17 11:08:28;;;;;;;7.30;2.22;;;20.80;32.90;;;;;;10460528;28;20048;-66
2021/04/17 11:13:31;;;;;;;7.45;2.45;;;21.10;31.20;;;;;;10460449;28;20048;-65
2021/04/17 11:18:36;;;;;;;7.90;2.65;;;21.20;34.60;;;;;;10460232;28;20391;-65
2021/04/17 11:23:43;;;;;;;11.55;2.40;;;20.70;35.60;;;;;;10460636;28;20094;-65
2021/04/17 11:28:46;;;;;;;14.23;2.95;;;20.50;35.30;;;;;;10457564;28;20414;-66
2021/04/17 11:33:50;;;;;;;6.18;2.33;;;20.40;35.00;;;;;;10458696;28;20372;-65
2021/04/17 11:38:51;;;;;;;8.00;2.22;;;20.20;34.10;;;;;;10459118;28;20159;-66
2021/04/17 11:43:53;;;;;;;6.75;1.65;;;19.90;33.90;;;;;;10458725;28;20453;-66
2021/04/17 11:48:55;;;;;;;;;;;19.20;35.40;;;;;;10459167;28;20400;-65
2021/04/17 11:53:56;;;;;;;13.38;2.70;;;18.90;36.50;;;;;;10460061;28;19963;-65
2021/04/17 11:58:58;;;;;;;8.93;2.42;;;18.70;36.70;;;;;;10459461;28;20052;-66
2021/04/17 12:04:00;;;;;;;9.30;2.22;;;19.80;37.00;;;;;;10460101;28;20044;-65
2021/04/17 12:09:02;;;;;;;6.85;2.75;;;18.20;37.20;;;;;;10457659;28;20466;-65
2021/04/17 12:14:04;;;;;;;10.13;3.65;;;18.10;37.80;;;;;;10457253;28;20071;-67
2021/04/17 12:19:06;;;;;;;7.23;2.40;;;17.90;38.20;;;;;;10464897;28;20099;-66
2021/04/17 12:24:08;;;;;;;;;;;17.90;37.60;;;;;;10465878;28;20492;-65
2021/04/17 12:29:09;;;;;;;10.77;2.13;;;17.40;37.70;;;;;;10466416;28;19959;-64
2021/04/17 12:34:11;;;;;;;7.87;1.97;;;17.20;37.50;;;;;;10463098;28;20056;-66
2021/04/17 12:39:13;;;;;;;6.47;1.92;;;17.10;38.60;;;;;;10465376;28;20498;-64
2021/04/17 12:44:14;;;;;;;6.10;1.80;;;16.90;37.30;;;;;;10466531;28;20052;-67
2021/04/17 12:49:16;;;;;;;3.53;1.23;;;16.80;37.10;;;;;;10468516;28;20205;-64
2021/04/17 12:54:18;;;;;;;10.90;1.92;;;16.70;37.50;;;;;;10465802;28;20074;-65
2021/04/17 12:59:19;;;;;;;15.00;1.87;;;16.30;37.30;;;;;;10465213;28;20093;-67
2021/04/17 13:04:21;;;;;;;6.95;1.67;;;16.30;36.70;;;;;;10467565;28;20182;-66
2021/04/17 13:09:23;;;;;;;8.63;1.67;;;16.40;37.80;;;;;;10467964;28;20455;-66
2021/04/17 13:14:25;;;;;;;8.70;1.90;;;16.20;37.40;;;;;;10467544;28;20032;-67
2021/04/17 13:19:27;;;;;;;7.32;1.88;;;15.70;39.20;;;;;;10466460;28;20094;-65
2021/04/17 13:24:28;;;;;;;8.55;1.98;;;15.20;42.40;;;;;;10466228;28;20155;-64
2021/04/17 13:29:30;;;;;;;5.90;1.52;;;15.00;44.40;;;;;;10464680;28;20069;-64
2021/04/17 13:34:32;;;;;;;6.35;1.67;;;16.40;39.70;;;;;;10464401;28;20135;-65
2021/04/17 13:39:33;;;;;;;3.90;1.58;;;14.80;39.00;;;;;;10465722;28;20515;-64
2021/04/17 13:44:34;;;;;;;12.85;2.00;;;14.50;40.40;;;;;;10465378;28;20033;-67
2021/04/17 13:49:37;;;;;;;10.88;2.05;;;14.30;43.40;;;;;;10464718;28;20045;-67
2021/04/17 13:54:38;;;;;;;8.05;2.08;;;14.80;50.00;;;;;;10461070;28;20135;-66
2021/04/17 13:59:40;;;;;;;13.70;2.70;;;13.90;48.10;;;;;;10462800;28;20048;-68
2021/04/17 14:04:42;;;;;;;12.30;2.35;;;14.00;50.30;;;;;;10462516;28;20053;-66
2021/04/17 14:09:43;;;;;;;8.18;1.95;;;14.00;52.50;;;;;;10464796;28;20126;-66
2021/04/17 14:14:45;;;;;;;10.20;2.05;;;13.80;51.30;;;;;;10464252;28;20159;-67
2021/04/17 14:19:47;;;;;;;12.95;2.25;;;14.50;53.90;;;;;;10464558;28;20084;-67
2021/04/17 14:24:48;;;;;;;6.78;1.88;;;13.40;51.70;;;;;;10464014;28;20056;-66
2021/04/17 14:29:50;;;;;;;8.82;1.80;;;13.20;49.60;;;;;;10464794;28;20052;-66
2021/04/17 14:34:53;;;;;;;10.63;1.88;;;13.00;52.40;;;;;;10462821;28;20156;-67
2021/04/17 14:39:54;;;;;;;;;;;12.90;48.40;;;;;;10463492;28;21733;-65
2021/04/17 14:44:55;;;;;;;6.30;1.58;;;12.90;50.50;;;;;;10463804;28;19916;-67
2021/04/17 14:49:58;;;;;;;14.00;1.80;;;12.80;49.40;;;;;;10463768;28;20051;-67
2021/04/17 14:54:59;;;;;;;6.72;1.90;;;12.60;50.50;;;;;;10463477;28;20067;-66
2021/04/17 15:00:00;;;;;;;5.35;1.80;;;12.40;50.00;;;;;;10463619;28;20393;-68
2021/04/17 15:05:03;;;;;;;9.98;1.50;;;12.30;51.00;;;;;;10463298;28;20087;-69
2021/04/17 15:10:06;;;;;;;7.53;1.75;;;12.10;50.60;;;;;;10460609;28;20064;-66
2021/04/17 15:15:08;;;;;;;8.23;2.13;;;12.00;53.60;;;;;;10461451;28;20155;-66
2021/04/17 15:20:11;;;;;;;11.48;1.90;;;11.80;56.80;;;;;;10462473;28;20175;-67
2021/04/17 15:25:13;;;;;;;6.00;1.67;;;11.70;57.60;;;;;;10460129;28;20049;-66
2021/04/17 15:30:15;;;;;;;8.07;2.00;;;11.70;59.00;;;;;;10461513;28;20144;-67
2021/04/17 15:35:17;;;;;;;6.80;1.50;;;11.60;60.70;;;;;;10461758;28;20087;-67
2021/04/17 15:40:19;;;;;;;11.57;2.03;;;11.40;60.00;;;;;;10461561;28;20079;-68
2021/04/17 15:45:20;;;;;;;14.50;1.83;;;11.10;62.70;;;;;;10463017;28;20041;-66
2021/04/17 15:50:22;;;;;;;11.18;1.92;;;11.20;63.80;;;;;;10461713;28;20082;-65
2021/04/17 15:55:24;;;;;;;9.20;2.13;;;11.00;65.40;;;;;;10469171;28;20493;-67
2021/04/17 16:16:25;;;;;;;11.80;2.05;;;10.50;71.30;;;;;;10466632;28;20071;-67
2021/04/17 16:21:27;;;;;;;10.20;2.08;;;10.30;71.90;;;;;;10460864;28;20033;-67
2021/04/17 16:26:29;;;;;;;12.33;2.40;;;10.10;74.20;;;;;;10465208;28;20067;-68
2021/04/17 16:31:31;;;;;;;15.25;2.22;;;9.90;76.40;;;;;;10465427;28;20478;-65
2021/04/17 16:36:34;;;;;;;11.05;2.33;;;9.50;80.60;;;;;;10463951;28;20083;-66
2021/04/17 16:41:36;;;;;;;9.25;2.30;;;9.60;81.30;;;;;;10459151;28;20048;-67
2021/04/17 16:46:38;;;;;;;14.32;2.30;;;9.60;79.50;;;;;;10465658;28;20180;-67
2021/04/17 16:51:41;;;;;;;8.90;3.40;;;9.60;80.10;;;;;;10462361;28;20092;-68
2021/04/17 16:56:43;;;;;;;9.98;2.13;;;9.50;80.20;;;;;;10458304;28;20053;-68
2021/04/17 17:01:44;;;;;;;11.43;2.40;;;9.40;81.40;;;;;;10461372;28;20819;-66
2021/04/17 17:06:46;;;;;;;7.28;2.08;;;9.20;81.60;;;;;;10462915;28;20074;-64
2021/04/17 17:11:49;;;;;;;15.35;2.78;;;9.00;81.90;;;;;;10465045;28;20690;-65
2021/04/17 17:16:50;;;;;;;17.63;2.40;;;8.90;83.10;;;;;;10464257;28;20105;-67
2021/04/17 17:21:53;;;;;;;10.73;2.80;;;8.70;85.40;;;;;;10463572;28;20051;-67
2021/04/17 17:26:55;;;;;;;13.83;3.27;;;8.50;87.00;;;;;;10465585;28;20135;-66
2021/04/17 17:31:56;;;;;;;9.40;2.47;;;8.40;88.10;;;;;;10463580;28;20373;-65
2021/04/17 17:36:59;;;;;;;6.03;2.42;;;8.20;89.30;;;;;;10464430;28;20048;-65
2021/04/17 17:42:00;;;;;;;12.03;2.43;;;8.10;90.40;;;;;;10465056;28;20550;-67
2021/04/17 17:47:01;;;;;;;16.52;3.33;;;7.70;92.60;;;;;;10463471;28;20123;-65
2021/04/17 17:52:05;;;;;;;12.38;4.35;;;7.80;91.40;;;;;;10466602;28;20072;-65
2021/04/17 17:57:07;;;;;;;13.15;2.25;;;7.80;91.80;;;;;;10466022;28;20052;-67
2021/04/17 18:02:08;;;;;;;15.15;3.70;;;7.70;91.80;;;;;;10465157;28;20697;-66
2021/04/17 18:07:10;;;;;;;15.77;4.78;;;7.60;92.10;;;;;;10465588;28;20393;-66
2021/04/17 18:12:12;;;;;;;13.53;2.87;;;7.40;92.60;;;;;;10462982;28;20056;-66
2021/04/17 18:17:13;;;;;;;23.48;3.13;;;7.30;92.90;;;;;;10465271;28;20151;-63
2021/04/17 18:22:15;;;;;;;22.90;3.13;;;7.10;93.20;;;;;;10462642;28;20044;-63
2021/04/17 18:27:17;;;;;;;9.05;2.40;;;7.00;94.10;;;;;;10461941;28;20051;-68
2021/04/17 18:32:18;;;;;;;7.43;2.70;;;6.90;94.70;;;;;;10458937;28;21842;-66
2021/04/17 18:37:20;;;;;;;15.27;2.78;;;6.70;94.90;;;;;;10461853;28;20171;-64
2021/04/17 18:42:21;;;;;;;14.50;3.25;;;6.70;97.30;;;;;;10462110;28;20048;-65
2021/04/17 18:47:23;;;;;;;17.75;3.28;;;6.50;97.70;;;;;;10460426;28;20036;-66
2021/04/17 18:52:25;;;;;;;22.20;4.03;;;6.40;96.30;;;;;;10461629;28;20636;-65
2021/04/17 18:57:27;;;;;;;25.13;5.20;;;6.40;96.90;;;;;;10459731;28;20078;-65
2021/04/17 19:02:28;;;;;;;17.67;3.17;;;6.20;99.50;;;;;;10459801;28;20037;-65
2021/04/17 19:07:30;;;;;;;9.25;3.75;;;6.10;99.80;;;;;;10459440;28;21824;-64
2021/04/17 19:12:32;;;;;;;12.68;3.30;;;6.10;98.00;;;;;;10460485;28;20110;-65
2021/04/17 19:17:33;;;;;;;13.38;3.70;;;6.00;98.20;;;;;;10461092;28;20133;-64
2021/04/17 19:22:36;;;;;;;23.45;4.25;;;6.00;98.50;;;;;;10461057;28;20564;-64
2021/04/17 19:27:37;;;;;;;16.17;3.77;;;;;;;;;;10463757;28;20151;-65
2021/04/17 19:32:39;;;;;;;9.23;2.55;;;6.00;99.90;;;;;;10468831;28;20053;-64
2021/04/17 19:37:41;;;;;;;9.98;3.85;;;5.90;99.00;;;;;;10469435;28;20147;-64
2021/04/17 19:42:43;;;;;;;12.00;3.78;;;5.80;99.20;;;;;;10468197;28;20528;-65
2021/04/17 19:47:45;;;;;;;10.63;4.65;;;5.90;99.90;;;;;;10467107;28;20161;-64
2021/04/17 19:52:48;;;;;;;17.40;4.65;;;5.80;99.60;;;;;;10468136;28;20123;-67
2021/04/17 19:57:49;;;;;;;21.47;4.53;;;5.80;99.90;;;;;;10468183;28;20051;-65
2021/04/17 20:02:51;;;;;;;13.65;4.15;;;5.80;99.90;;;;;;10465382;28;20067;-65
2021/04/17 20:07:53;;;;;;;14.68;4.07;;;5.40;99.90;;;;;;10462888;28;20923;-66
2021/04/17 20:12:54;;;;;;;15.13;3.60;;;5.80;99.90;;;;;;10457808;28;20455;-65
2021/04/17 20:17:56;;;;;;;11.73;4.05;;;5.40;99.90;;;;;;10462809;28;20083;-65
2021/04/17 20:22:58;;;;;;;18.33;4.47;;;5.60;99.90;;;;;;10466162;28;20051;-65
2021/04/17 20:27:59;;;;;;;15.80;3.55;;;5.50;99.90;;;;;;10468784;28;20462;-64
2021/04/17 20:33:00;;;;;;;19.40;4.47;;;5.50;99.90;;;;;;10469188;28;20044;-65
2021/04/17 20:38:03;;;;;;;16.63;4.22;;;5.50;99.90;;;;;;10469667;28;20121;-65
2021/04/17 20:43:04;;;;;;;12.20;3.17;;;5.40;99.90;;;;;;10467182;28;20138;-65
2021/04/17 20:48:06;;;;;;;12.23;4.15;;;5.40;99.90;;;;;;10468376;28;20072;-65
2021/04/17 20:53:08;;;;;;;15.70;4.35;;;5.40;99.90;;;;;;10468737;28;20048;-65
2021/04/17 20:58:09;;;;;;;20.52;4.88;;;5.40;99.90;;;;;;10468153;28;20042;-64
2021/04/17 21:03:11;;;;;;;22.60;5.55;;;5.40;99.90;;;;;;10469506;28;20666;-64
2021/04/17 21:08:14;;;;;;;15.00;4.50;;;5.30;99.90;;;;;;10467422;28;20083;-64
2021/04/17 21:13:15;;;;;;;28.67;4.60;;;5.20;99.90;;;;;;10469189;28;20052;-65
2021/04/17 21:18:16;;;;;;;18.67;4.68;;;5.30;99.90;;;;;;10468626;28;20048;-64
2021/04/17 21:23:18;;;;;;;15.35;4.47;;;5.00;99.90;;;;;;10467975;28;20135;-64
2021/04/17 21:28:20;;;;;;;17.98;5.20;;;5.10;99.90;;;;;;10467976;28;20048;-64
2021/04/17 21:33:21;;;;;;;22.15;5.10;;;5.10;99.90;;;;;;10464357;28;20670;-64
2021/04/17 21:38:24;;;;;;;27.67;6.35;;;5.00;99.90;;;;;;10463440;28;20044;-63
2021/04/17 21:43:25;;;;;;;28.55;6.88;;;5.00;99.90;;;;;;10458750;28;20052;-64
2021/04/17 21:48:26;;;;;;;25.67;5.65;;;4.80;99.90;;;;;;10448854;28;20705;-64
2021/04/17 21:53:29;;;;;;;30.30;4.40;;;4.90;99.90;;;;;;10463386;28;20810;-66
2021/04/17 21:58:30;;;;;;;14.85;4.53;;;4.80;99.90;;;;;;10463186;28;20093;-65
2021/04/17 22:03:32;;;;;;;20.90;5.13;;;4.80;99.90;;;;;;10462066;28;20469;-66
2021/04/17 22:08:34;;;;;;;23.98;6.40;;;4.70;99.90;;;;;;10461739;28;20040;-65
2021/04/17 22:13:35;;;;;;;20.13;4.60;;;5.00;99.90;;;;;;10462722;28;20170;-65
2021/04/17 22:18:36;;;;;;;28.55;5.20;;;5.00;99.90;;;;;;10463916;28;20068;-64
2021/04/17 22:23:38;;;;;;;22.98;7.32;;;4.90;99.90;;;;;;10461605;28;20057;-65
2021/04/17 22:28:40;;;;;;;13.00;4.38;;;5.00;99.90;;;;;;10462290;28;20084;-65
2021/04/17 22:33:41;;;;;;;19.02;5.15;;;4.90;99.90;;;;;;10459583;28;20048;-69
2021/04/17 22:38:43;;;;;;;17.95;4.97;;;4.90;99.90;;;;;;10457212;28;20210;-65
2021/04/17 22:43:45;;;;;;;20.02;4.47;;;4.80;99.90;;;;;;10458567;28;20419;-65
2021/04/17 22:48:46;;;;;;;39.55;5.25;;;4.90;99.90;;;;;;10459758;28;20056;-66
2021/04/17 22:53:48;;;;;;;21.60;5.10;;;4.90;99.90;;;;;;10459307;28;20143;-63
2021/04/17 22:58:50;;;;;;;17.85;6.55;;;4.80;99.90;;;;;;10462080;28;20060;-64
2021/04/17 23:03:51;;;;;;;24.73;7.43;;;4.80;99.90;;;;;;10461370;28;20045;-65
2021/04/17 23:08:53;;;;;;;21.27;6.00;;;4.80;99.90;;;;;;10460897;28;20059;-65
2021/04/17 23:13:55;;;;;;;24.75;5.15;;;4.80;99.90;;;;;;10460089;28;20045;-66
2021/04/17 23:18:56;;;;;;;21.23;5.85;;;4.80;99.90;;;;;;10460025;28;20048;-66
2021/04/17 23:23:58;;;;;;;17.55;5.45;;;4.80;99.90;;;;;;10459236;28;20045;-65
2021/04/17 23:28:59;;;;;;;27.80;5.82;;;4.70;99.90;;;;;;10461259;28;20460;-66
2021/04/17 23:34:01;;;;;;;22.95;4.68;;;4.70;99.90;;;;;;10458822;28;20618;-65
2021/04/17 23:39:04;;;;;;;17.80;5.80;;;4.70;99.90;;;;;;10460680;28;20572;-65
2021/04/17 23:44:14;;;;;;;21.10;5.45;;;4.70;99.90;;;;;;10459746;28;20802;-65
2021/04/17 23:49:16;;;;;;;21.95;5.70;;;4.80;99.90;;;;;;10459080;28;20052;-65
2021/04/17 23:54:18;;;;;;;14.90;5.07;;;4.80;99.90;;;;;;10458463;28;20127;-67
2021/04/17 23:59:20;;;;;;;28.17;6.30;;;4.80;99.90;;;;;;10457524;28;20052;-65
